createdAt,value
2023-10-20T00:02:19.207Z,13.70
2023-10-20T00:04:58.909Z,13.70
2023-10-20T00:07:39.197Z,13.67
2023-10-20T00:10:19.235Z,13.65
2023-10-20T00:13:01.623Z,13.61
2023-10-20T00:15:41.235Z,13.57
2023-10-20T00:18:20.907Z,13.49
2023-10-20T00:21:00.571Z,13.47
2023-10-20T00:23:40.046Z,13.44
2023-10-20T00:26:19.779Z,13.40
2023-10-20T00:28:59.359Z,13.35
2023-10-20T00:31:39.957Z,13.27
2023-10-20T00:34:19.620Z,13.21
2023-10-20T00:36:59.162Z,13.16
2023-10-20T00:39:38.891Z,13.13
2023-10-20T00:42:18.621Z,13.09
2023-10-20T00:44:58.137Z,13.05
2023-10-20T00:47:41.393Z,13.06
2023-10-20T00:50:21.759Z,13.05
2023-10-20T00:53:02.678Z,13.02
2023-10-20T00:55:43.033Z,13.00
2023-10-20T00:58:22.991Z,12.96
2023-10-20T01:01:05.649Z,12.97
2023-10-20T01:03:45.767Z,12.96
2023-10-20T01:06:26.565Z,12.92
2023-10-20T01:09:14.096Z,12.88
2023-10-20T01:11:54.276Z,12.79
2023-10-20T01:14:34.363Z,12.83
2023-10-20T01:17:13.981Z,12.81
2023-10-20T01:19:55.355Z,12.79
2023-10-20T01:22:36.196Z,12.76
2023-10-20T01:25:18.042Z,12.73
2023-10-20T01:27:57.723Z,12.67
2023-10-20T01:30:37.327Z,12.64
2023-10-20T01:33:19.459Z,12.61
2023-10-20T01:36:01.147Z,12.56
2023-10-20T01:38:40.767Z,12.51
2023-10-20T01:41:25.631Z,12.47
2023-10-20T01:44:05.329Z,12.44
2023-10-20T01:46:50.844Z,12.41
2023-10-20T01:49:30.410Z,12.38
2023-10-20T01:52:10.184Z,12.34
2023-10-20T01:54:52.555Z,12.32
2023-10-20T01:57:32.109Z,12.28
2023-10-20T02:00:15.114Z,12.28
2023-10-20T02:02:55.032Z,12.22
2023-10-20T02:08:14.711Z,12.14
2023-10-20T02:10:54.373Z,12.10
2023-10-20T02:13:36.571Z,12.08
2023-10-20T02:16:16.885Z,12.07
2023-10-20T02:19:00.439Z,12.06
2023-10-20T02:21:40.387Z,12.02
2023-10-20T02:24:20.012Z,11.99
2023-10-20T02:27:00.061Z,11.96
2023-10-20T02:29:39.744Z,11.92
2023-10-20T02:32:19.333Z,11.88
2023-10-20T02:34:58.893Z,11.87
2023-10-20T02:37:38.665Z,11.86
2023-10-20T02:40:18.379Z,11.82
2023-10-20T02:42:57.961Z,11.78
2023-10-20T02:45:39.810Z,11.75
2023-10-20T02:48:19.770Z,11.68
2023-10-20T02:50:59.347Z,11.67
2023-10-20T02:53:41.873Z,11.59
2023-10-20T02:56:24.884Z,11.51
2023-10-20T02:59:05.305Z,11.46
2023-10-20T03:01:47.331Z,11.38
2023-10-20T03:04:27.107Z,11.32
2023-10-20T03:07:06.750Z,11.20
2023-10-20T03:09:46.316Z,11.14
2023-10-20T03:12:25.930Z,11.07
2023-10-20T03:15:07.848Z,11.02
2023-10-20T03:17:47.618Z,11.01
2023-10-20T03:20:31.625Z,10.97
2023-10-20T03:23:11.288Z,10.93
2023-10-20T03:25:51.089Z,10.90
2023-10-20T03:28:30.812Z,10.86
2023-10-20T03:31:10.446Z,10.84
2023-10-20T03:33:50.147Z,10.79
2023-10-20T03:36:29.845Z,10.76
2023-10-20T03:39:21.942Z,10.74
2023-10-20T03:42:03.807Z,10.71
2023-10-20T03:44:44.865Z,10.70
2023-10-20T03:47:30.538Z,10.68
2023-10-20T03:50:20.910Z,10.64
2023-10-20T03:52:59.758Z,10.56
2023-10-20T03:55:39.264Z,10.55
2023-10-20T03:58:21.531Z,10.55
2023-10-20T04:01:05.013Z,10.53
2023-10-20T04:03:50.991Z,10.52
2023-10-20T04:06:30.300Z,10.43
2023-10-20T04:09:11.055Z,10.48
2023-10-20T04:11:51.148Z,10.46
2023-10-20T04:14:31.548Z,10.47
2023-10-20T04:17:10.958Z,10.44
2023-10-20T04:19:50.869Z,10.43
2023-10-20T04:22:31.193Z,10.44
2023-10-20T04:25:14.143Z,10.42
2023-10-20T04:28:02.361Z,10.39
2023-10-20T04:31:00.748Z,10.41
2023-10-20T04:33:59.252Z,10.38
2023-10-20T04:36:58.777Z,10.36
2023-10-20T04:39:57.494Z,10.36
2023-10-20T04:42:36.993Z,10.34
2023-10-20T04:45:27.383Z,10.36
2023-10-20T04:48:45.150Z,10.36
2023-10-20T04:51:43.476Z,10.36
2023-10-20T04:54:45.768Z,10.36
2023-10-20T04:57:25.433Z,10.36
2023-10-20T05:00:25.657Z,10.36
2023-10-20T05:03:05.892Z,10.37
2023-10-20T05:05:54.773Z,10.34
2023-10-20T05:08:34.402Z,10.31
2023-10-20T05:11:14.035Z,10.33
2023-10-20T05:13:56.627Z,10.33
2023-10-20T05:16:36.314Z,10.33
2023-10-20T05:19:16.101Z,10.32
2023-10-20T05:21:56.812Z,10.31
2023-10-20T05:24:36.451Z,10.24
2023-10-20T05:27:16.183Z,10.30
2023-10-20T05:29:56.038Z,10.27
2023-10-20T05:32:36.376Z,10.24
2023-10-20T05:35:16.010Z,10.24
2023-10-20T05:37:56.400Z,10.24
2023-10-20T05:40:40.629Z,10.17
2023-10-20T05:43:20.255Z,10.20
2023-10-20T05:45:59.908Z,10.22
2023-10-20T05:48:39.898Z,10.21
2023-10-20T05:51:19.943Z,10.22
2023-10-20T05:53:59.604Z,10.22
2023-10-20T05:56:39.793Z,10.21
2023-10-20T05:59:19.240Z,10.23
2023-10-20T06:02:00.923Z,10.21
2023-10-20T06:04:40.586Z,10.21
2023-10-20T06:07:23.124Z,10.16
2023-10-20T06:10:02.762Z,10.18
2023-10-20T06:12:42.516Z,10.13
2023-10-20T06:15:23.090Z,10.15
2023-10-20T06:18:02.804Z,10.13
2023-10-20T06:20:43.056Z,10.10
2023-10-20T06:23:23.917Z,10.10
2023-10-20T06:26:03.604Z,10.07
2023-10-20T06:28:47.012Z,10.05
2023-10-20T06:31:30.119Z,10.04
2023-10-20T06:34:13.203Z,9.98
2023-10-20T06:37:10.076Z,9.99
2023-10-20T06:39:49.782Z,9.93
2023-10-20T06:42:30.010Z,9.91
2023-10-20T06:45:11.721Z,9.90
2023-10-20T06:47:51.856Z,9.87
2023-10-20T06:50:33.400Z,9.82
2023-10-20T06:53:15.457Z,9.82
2023-10-20T06:56:13.948Z,9.79
2023-10-20T06:58:42.789Z,9.75
2023-10-20T07:01:22.525Z,9.75
2023-10-20T07:04:07.910Z,9.70
2023-10-20T07:06:47.666Z,9.70
2023-10-20T07:09:27.967Z,9.70
2023-10-20T07:12:14.713Z,9.67
2023-10-20T07:14:50.825Z,9.65
2023-10-20T07:17:30.627Z,9.65
2023-10-20T07:20:10.945Z,9.65
2023-10-20T07:22:50.484Z,9.65
2023-10-20T07:25:30.162Z,9.62
2023-10-20T07:28:09.759Z,9.60
2023-10-20T07:30:49.978Z,9.58
2023-10-20T07:33:33.255Z,9.57
2023-10-20T07:36:12.868Z,9.51
2023-10-20T07:38:52.535Z,9.53
2023-10-20T07:41:32.113Z,9.50
2023-10-20T07:44:20.214Z,9.49
2023-10-20T07:46:59.762Z,9.47
2023-10-20T07:49:40.574Z,9.48
2023-10-20T07:52:20.751Z,9.44
2023-10-20T07:55:00.448Z,9.47
2023-10-20T07:57:40.106Z,9.46
2023-10-20T08:00:20.155Z,9.47
2023-10-20T08:03:00.208Z,9.46
2023-10-20T08:05:41.647Z,9.44
2023-10-20T08:08:20.988Z,9.44
2023-10-20T08:11:00.876Z,9.42
2023-10-20T08:13:42.631Z,9.41
2023-10-20T08:16:23.383Z,9.39
2023-10-20T08:19:03.211Z,9.39
2023-10-20T08:21:47.727Z,9.38
2023-10-20T08:24:27.415Z,9.37
2023-10-20T08:27:07.169Z,9.36
2023-10-20T08:29:56.757Z,9.34
2023-10-20T08:32:38.200Z,9.38
2023-10-20T08:35:17.871Z,9.43
2023-10-20T08:38:08.760Z,9.53
2023-10-20T08:41:08.129Z,9.45
2023-10-20T08:43:30.058Z,9.37
2023-10-20T08:46:11.471Z,9.34
2023-10-20T08:48:51.345Z,9.30
2023-10-20T08:51:33.125Z,9.30
2023-10-20T08:54:23.942Z,9.32
2023-10-20T08:57:12.037Z,9.30
2023-10-20T08:59:54.887Z,9.25
2023-10-20T09:02:41.383Z,9.23
2023-10-20T09:05:24.593Z,9.22
2023-10-20T09:08:04.947Z,9.16
2023-10-20T09:10:47.181Z,9.17
2023-10-20T09:13:39.415Z,9.15
2023-10-20T09:16:19.264Z,9.13
2023-10-20T09:18:58.822Z,9.14
2023-10-20T09:21:43.519Z,9.13
2023-10-20T09:24:29.398Z,9.15
2023-10-20T09:27:10.425Z,9.15
2023-10-20T09:29:49.421Z,9.11
2023-10-20T09:32:32.217Z,9.08
2023-10-20T09:35:12.295Z,9.04
2023-10-20T09:37:55.790Z,8.97
2023-10-20T09:40:36.039Z,8.89
2023-10-20T09:43:30.282Z,8.75
2023-10-20T09:46:43.124Z,8.71
2023-10-20T09:49:30.093Z,8.66
2023-10-20T09:52:12.349Z,8.65
2023-10-20T09:54:54.343Z,8.65
2023-10-20T09:57:34.606Z,8.66
2023-10-20T10:00:14.888Z,8.68
2023-10-20T10:03:00.752Z,8.67
2023-10-20T10:05:45.085Z,8.68
2023-10-20T10:08:23.297Z,8.64
2023-10-20T10:11:22.379Z,8.68
2023-10-20T10:14:06.598Z,8.69
2023-10-20T10:17:00.024Z,8.65
2023-10-20T10:19:37.315Z,8.67
2023-10-20T10:22:17.885Z,8.65
2023-10-20T10:25:02.272Z,8.67
2023-10-20T10:27:44.107Z,8.66
2023-10-20T10:30:31.370Z,8.66
2023-10-20T10:33:14.025Z,8.63
2023-10-20T10:36:08.691Z,8.63
2023-10-20T10:38:48.941Z,8.65
2023-10-20T10:41:29.285Z,8.66
2023-10-20T10:44:10.088Z,8.68
2023-10-20T10:46:49.854Z,8.71
2023-10-20T10:49:29.497Z,8.73
2023-10-20T10:52:09.270Z,8.74
2023-10-20T10:54:49.187Z,8.77
2023-10-20T10:57:30.364Z,8.82
2023-10-20T11:00:10.301Z,8.82
2023-10-20T11:02:51.179Z,8.82
2023-10-20T11:05:32.340Z,8.84
2023-10-20T11:08:14.416Z,8.83
2023-10-20T11:10:52.435Z,8.84
2023-10-20T11:13:34.065Z,8.87
2023-10-20T11:16:16.388Z,8.89
2023-10-20T11:18:56.325Z,8.93
2023-10-20T11:21:53.410Z,8.96
2023-10-20T11:24:37.621Z,8.99
2023-10-20T11:27:15.083Z,9.01
2023-10-20T11:29:58.914Z,9.03
2023-10-20T11:32:34.502Z,9.05
2023-10-20T11:35:14.054Z,9.05
2023-10-20T11:37:55.232Z,9.07
2023-10-20T11:40:34.630Z,9.10
2023-10-20T11:43:14.188Z,9.15
2023-10-20T11:45:54.930Z,9.17
2023-10-20T11:48:34.625Z,9.21
2023-10-20T11:51:15.032Z,9.24
2023-10-20T11:53:54.929Z,9.27
2023-10-20T11:56:36.308Z,9.28
2023-10-20T11:59:17.929Z,9.28
2023-10-20T12:01:57.576Z,9.29
2023-10-20T12:04:37.458Z,9.32
2023-10-20T12:07:16.520Z,9.32
2023-10-20T12:09:58.123Z,9.35
2023-10-20T12:12:40.924Z,9.39
2023-10-20T12:15:23.516Z,9.37
2023-10-20T12:18:03.292Z,9.33
2023-10-20T12:20:43.190Z,9.33
2023-10-20T12:23:22.602Z,9.35
2023-10-20T12:26:04.572Z,9.36
2023-10-20T12:28:44.238Z,9.38
2023-10-20T12:31:27.800Z,9.39
2023-10-20T12:34:07.324Z,9.43
2023-10-20T12:36:47.518Z,9.43
2023-10-20T12:39:29.431Z,9.42
2023-10-20T12:42:09.106Z,9.40
2023-10-20T12:44:48.824Z,9.42
2023-10-20T12:47:28.757Z,9.41
2023-10-20T12:50:09.726Z,9.39
2023-10-20T12:52:52.297Z,9.37
2023-10-20T12:58:12.208Z,9.36
2023-10-20T13:00:51.837Z,9.37
2023-10-20T13:03:31.861Z,9.36
2023-10-20T13:06:12.047Z,9.35
2023-10-20T13:08:52.644Z,9.35
2023-10-20T13:11:32.258Z,9.35
2023-10-20T13:14:11.904Z,9.36
2023-10-20T13:16:52.020Z,9.37
2023-10-20T13:19:31.750Z,9.40
2023-10-20T13:22:13.715Z,9.42
2023-10-20T13:24:54.008Z,9.43
2023-10-20T13:27:34.516Z,9.39
2023-10-20T13:30:14.411Z,9.40
2023-10-20T13:32:54.770Z,9.37
2023-10-20T13:35:42.326Z,9.35
2023-10-20T13:38:32.774Z,9.35
2023-10-20T13:41:01.390Z,9.32
2023-10-20T13:43:43.064Z,9.31
2023-10-20T13:46:22.615Z,9.30
2023-10-20T13:49:02.233Z,9.28
2023-10-20T13:51:42.126Z,9.29
2023-10-20T13:54:21.645Z,9.30
2023-10-20T13:57:02.060Z,9.32
2023-10-20T13:59:50.133Z,9.34
2023-10-20T14:02:38.441Z,9.34
2023-10-20T14:05:20.440Z,9.30
2023-10-20T14:08:04.854Z,9.33
2023-10-20T14:10:44.446Z,9.32
2023-10-20T14:13:24.054Z,9.35
2023-10-20T14:16:04.803Z,9.33
2023-10-20T14:18:44.284Z,9.33
2023-10-20T14:21:24.676Z,9.34
2023-10-20T14:24:04.548Z,9.39
2023-10-20T14:26:52.772Z,9.53
2023-10-20T14:29:41.801Z,9.66
2023-10-20T14:32:30.160Z,9.72
2023-10-20T14:35:18.334Z,9.75
2023-10-20T14:38:07.907Z,9.74
2023-10-20T14:41:08.465Z,9.80
2023-10-20T14:43:56.681Z,9.80
2023-10-20T14:46:36.059Z,9.69
2023-10-20T14:49:15.687Z,9.64
2023-10-20T14:51:55.134Z,9.59
2023-10-20T14:54:34.887Z,9.66
2023-10-20T14:57:14.352Z,9.67
2023-10-20T14:59:54.034Z,9.67
2023-10-20T15:02:33.563Z,9.68
2023-10-20T15:05:13.079Z,9.68
2023-10-20T15:07:52.574Z,9.67
2023-10-20T15:10:32.153Z,9.69
2023-10-20T15:13:11.734Z,9.70
2023-10-20T15:15:51.346Z,9.70
2023-10-20T15:18:31.734Z,9.71
2023-10-20T15:21:11.571Z,9.72
2023-10-20T15:23:55.226Z,9.74
2023-10-20T15:26:34.923Z,9.76
2023-10-20T15:29:14.594Z,9.78
2023-10-20T15:31:54.414Z,9.80
2023-10-20T15:34:33.936Z,9.81
2023-10-20T15:37:13.570Z,9.84
2023-10-20T15:40:00.780Z,9.85
2023-10-20T15:42:33.289Z,9.84
2023-10-20T15:45:13.111Z,9.86
2023-10-20T15:47:52.827Z,9.86
2023-10-20T15:50:34.148Z,9.86
2023-10-20T15:53:13.521Z,9.86
2023-10-20T15:55:56.144Z,9.88
2023-10-20T15:58:36.939Z,9.88
2023-10-20T16:01:16.643Z,9.89
2023-10-20T16:03:56.371Z,9.91
2023-10-20T16:06:35.744Z,9.93
2023-10-20T16:09:17.523Z,9.93
2023-10-20T16:11:55.239Z,9.95
2023-10-20T16:14:34.934Z,9.99
2023-10-20T16:17:14.512Z,10.01
2023-10-20T16:19:54.092Z,10.01
2023-10-20T16:22:33.803Z,10.03
2023-10-20T16:25:13.539Z,10.10
2023-10-20T16:27:53.222Z,10.14
2023-10-20T16:30:32.936Z,10.20
2023-10-20T16:33:14.413Z,10.23
2023-10-20T16:35:56.994Z,10.25
2023-10-20T16:38:36.965Z,10.29
2023-10-20T16:41:19.214Z,10.32
2023-10-20T16:43:58.868Z,10.34
2023-10-20T16:49:21.151Z,10.43
2023-10-20T16:52:00.682Z,10.44
2023-10-20T16:54:40.463Z,10.46
2023-10-20T16:57:21.236Z,10.50
2023-10-20T17:00:00.988Z,10.52
2023-10-20T17:02:40.746Z,10.56
2023-10-20T17:05:20.324Z,10.59
2023-10-20T17:08:00.294Z,10.60
2023-10-20T17:10:41.406Z,10.65
2023-10-20T17:13:21.130Z,10.71
2023-10-20T17:16:19.483Z,10.77
2023-10-20T17:19:00.461Z,10.81
2023-10-20T17:21:40.116Z,10.86
2023-10-20T17:24:19.226Z,10.90
2023-10-20T17:26:57.589Z,10.95
2023-10-20T17:29:37.452Z,10.98
2023-10-20T17:32:17.394Z,11.02
2023-10-20T17:34:57.112Z,11.04
2023-10-20T17:40:17.129Z,11.09
2023-10-20T17:42:56.739Z,11.12
2023-10-20T17:45:41.128Z,11.16
2023-10-20T17:48:20.744Z,11.19
2023-10-20T17:51:01.927Z,11.24
2023-10-20T17:53:42.240Z,11.29
2023-10-20T17:56:21.966Z,11.32
2023-10-20T17:59:01.677Z,11.40
2023-10-20T18:01:41.790Z,11.52
2023-10-20T18:04:21.930Z,11.72
2023-10-20T18:07:01.755Z,11.97
2023-10-20T18:09:41.362Z,12.15
2023-10-20T18:12:26.667Z,12.28
2023-10-20T18:15:06.834Z,12.40
2023-10-20T18:17:46.551Z,12.50
2023-10-20T18:20:26.041Z,12.59
2023-10-20T18:23:06.591Z,12.66
2023-10-20T18:25:46.274Z,12.74
2023-10-20T18:28:25.907Z,12.81
2023-10-20T18:31:16.843Z,12.83
2023-10-20T18:33:58.732Z,12.87
2023-10-20T18:36:38.956Z,12.93
2023-10-20T18:39:23.357Z,12.98
2023-10-20T18:42:05.838Z,13.04
2023-10-20T18:44:45.269Z,13.05
2023-10-20T18:47:24.816Z,13.07
2023-10-20T18:50:05.290Z,13.11
2023-10-20T18:52:44.966Z,13.13
2023-10-20T18:55:24.778Z,13.14
2023-10-20T18:58:06.459Z,13.13
2023-10-20T19:00:46.125Z,13.09
2023-10-20T19:03:27.886Z,13.13
2023-10-20T19:06:10.640Z,13.14
2023-10-20T19:08:49.498Z,13.11
2023-10-20T19:11:29.167Z,13.13
2023-10-20T19:14:09.405Z,13.10
2023-10-20T19:16:49.824Z,13.10
2023-10-20T19:19:29.527Z,13.09
2023-10-20T19:22:09.265Z,13.04
2023-10-20T19:24:49.419Z,13.07
2023-10-20T19:27:36.654Z,13.02
2023-10-20T19:30:16.529Z,13.01
2023-10-20T19:32:56.270Z,13.01
2023-10-20T19:35:35.785Z,12.98
2023-10-20T19:38:15.375Z,12.97
2023-10-20T19:40:55.167Z,12.92
2023-10-20T19:43:34.798Z,12.90
2023-10-20T19:46:15.324Z,12.89
2023-10-20T19:48:55.009Z,12.91
2023-10-20T19:51:34.730Z,12.91
2023-10-20T19:54:14.459Z,12.89
2023-10-20T19:56:54.313Z,12.86
2023-10-20T19:59:34.416Z,12.86
2023-10-20T20:02:17.122Z,12.84
2023-10-20T20:04:56.813Z,12.85
2023-10-20T20:07:37.349Z,12.85
2023-10-20T20:10:17.034Z,12.81
2023-10-20T20:13:05.011Z,12.81
2023-10-20T20:15:51.907Z,12.81
2023-10-20T20:18:34.624Z,12.83
2023-10-20T20:21:14.218Z,12.82
2023-10-20T20:23:53.996Z,12.85
2023-10-20T20:26:33.775Z,12.85
2023-10-20T20:29:14.904Z,12.86
2023-10-20T20:31:59.896Z,12.87
2023-10-20T20:34:38.754Z,12.87
2023-10-20T20:37:18.458Z,12.87
2023-10-20T20:39:58.510Z,12.87
2023-10-20T20:42:38.239Z,12.88
2023-10-20T20:45:18.116Z,12.88
2023-10-20T20:47:59.052Z,12.89
2023-10-20T20:50:41.916Z,12.86
2023-10-20T20:53:21.576Z,12.83
2023-10-20T20:56:01.310Z,12.86
2023-10-20T20:58:41.351Z,12.85
2023-10-20T21:01:21.459Z,12.80
2023-10-20T21:04:02.237Z,12.74
2023-10-20T21:06:41.603Z,12.68
2023-10-20T21:09:24.595Z,12.62
2023-10-20T21:12:05.733Z,12.62
2023-10-20T21:14:48.490Z,12.56
2023-10-20T21:17:28.351Z,12.51
2023-10-20T21:20:09.930Z,12.52
2023-10-20T21:22:54.760Z,12.52
2023-10-20T21:25:40.578Z,12.52
2023-10-20T21:28:20.297Z,12.57
2023-10-20T21:31:04.543Z,12.57
2023-10-20T21:33:44.355Z,12.54
2023-10-20T21:36:24.059Z,12.51
2023-10-20T21:39:07.359Z,12.51
2023-10-20T21:41:46.975Z,12.46
2023-10-20T21:44:28.888Z,12.42
2023-10-20T21:47:08.618Z,12.38
2023-10-20T21:49:48.422Z,12.39
2023-10-20T21:52:28.492Z,12.35
2023-10-20T21:55:09.725Z,12.33
2023-10-20T21:57:49.351Z,12.30
2023-10-20T22:00:29.178Z,12.29
2023-10-20T22:03:08.939Z,12.25
2023-10-20T22:05:48.713Z,12.22
2023-10-20T22:08:28.763Z,12.19
2023-10-20T22:11:08.463Z,12.17
2023-10-20T22:13:55.443Z,12.13
2023-10-20T22:16:35.110Z,12.12
2023-10-20T22:19:14.699Z,12.09
2023-10-20T22:21:54.316Z,12.04
2023-10-20T22:24:34.059Z,12.02
2023-10-20T22:27:13.760Z,12.01
2023-10-20T22:29:53.408Z,11.97
2023-10-20T22:32:32.969Z,11.95
2023-10-20T22:35:15.333Z,11.89
2023-10-20T22:37:55.230Z,11.90
2023-10-20T22:40:34.887Z,11.88
2023-10-20T22:43:14.582Z,11.85
2023-10-20T22:45:56.786Z,11.85
2023-10-20T22:48:36.376Z,11.86
2023-10-20T22:51:16.079Z,11.83
2023-10-20T22:53:55.788Z,11.82
2023-10-20T22:56:35.405Z,11.78
2023-10-20T22:59:15.404Z,11.78
2023-10-20T23:01:55.055Z,11.78
2023-10-20T23:04:34.702Z,11.75
2023-10-20T23:07:14.263Z,11.74
2023-10-20T23:09:53.885Z,11.75
2023-10-20T23:12:34.663Z,11.73
2023-10-20T23:15:14.178Z,11.76
2023-10-20T23:17:54.086Z,11.75
2023-10-20T23:20:33.609Z,11.72
2023-10-20T23:23:13.292Z,11.72
2023-10-20T23:25:52.933Z,11.70
2023-10-20T23:28:32.566Z,11.68
2023-10-20T23:31:12.551Z,11.66
2023-10-20T23:33:52.227Z,11.63
2023-10-20T23:36:31.807Z,11.61
2023-10-20T23:39:12.795Z,11.57
2023-10-20T23:41:52.331Z,11.54
2023-10-20T23:44:34.373Z,11.51
2023-10-20T23:47:13.947Z,11.43
2023-10-20T23:49:53.678Z,11.45
2023-10-20T23:52:34.024Z,11.42
2023-10-20T23:55:13.607Z,11.40
2023-10-20T23:57:53.246Z,11.42
